createdAt,value
2023-01-17T00:02:26.298Z,6.57
2023-01-17T00:05:11.278Z,6.57
2023-01-17T00:07:55.960Z,6.56
2023-01-17T00:10:25.664Z,6.57
2023-01-17T00:12:57.747Z,6.57
2023-01-17T00:15:25.013Z,6.56
2023-01-17T00:17:52.578Z,6.58
2023-01-17T00:20:46.297Z,6.57
2023-01-17T00:23:42.579Z,6.55
2023-01-17T00:26:16.687Z,6.50
2023-01-17T00:28:44.359Z,6.55
2023-01-17T00:31:13.012Z,6.56
2023-01-17T00:33:39.752Z,6.57
2023-01-17T00:36:06.637Z,6.59
2023-01-17T00:38:36.133Z,6.59
2023-01-17T00:41:05.089Z,6.59
2023-01-17T00:43:50.085Z,6.54
2023-01-17T00:46:36.037Z,6.59
2023-01-17T00:49:21.264Z,6.59
2023-01-17T00:52:06.112Z,6.58
2023-01-17T00:54:50.896Z,6.56
2023-01-17T00:57:35.661Z,6.57
2023-01-17T01:00:20.531Z,6.58
2023-01-17T01:03:05.281Z,6.56
2023-01-17T01:05:50.578Z,6.57
2023-01-17T01:08:44.763Z,6.56
2023-01-17T01:11:33.122Z,6.55
2023-01-17T01:14:19.382Z,6.54
2023-01-17T01:17:04.866Z,6.57
2023-01-17T01:19:49.866Z,6.56
2023-01-17T01:22:34.700Z,6.54
2023-01-17T01:25:20.003Z,6.56
2023-01-17T01:28:05.258Z,6.53
2023-01-17T01:30:50.659Z,6.50
2023-01-17T01:33:19.944Z,6.56
2023-01-17T01:35:49.248Z,6.56
2023-01-17T01:38:16.736Z,6.52
2023-01-17T01:40:45.661Z,6.56
2023-01-17T01:43:14.249Z,6.55
2023-01-17T01:45:44.573Z,6.57
2023-01-17T01:48:24.836Z,6.53
2023-01-17T01:50:51.655Z,6.56
2023-01-17T01:53:20.152Z,6.55
2023-01-17T01:55:49.416Z,6.56
2023-01-17T01:58:24.657Z,6.55
2023-01-17T02:00:51.421Z,6.55
2023-01-17T02:03:23.368Z,6.53
2023-01-17T02:06:28.958Z,6.53
2023-01-17T02:08:58.776Z,6.53
2023-01-17T02:11:25.468Z,6.55
2023-01-17T02:13:51.906Z,6.52
2023-01-17T02:16:21.222Z,6.55
2023-01-17T02:19:05.555Z,6.54
2023-01-17T02:21:34.567Z,6.49
2023-01-17T02:24:07.181Z,6.52
2023-01-17T02:27:01.201Z,6.50
2023-01-17T02:30:05.145Z,6.51
2023-01-17T02:32:59.927Z,6.50
2023-01-17T02:35:47.248Z,6.51
2023-01-17T02:38:25.258Z,6.52
2023-01-17T02:41:07.644Z,6.45
2023-01-17T02:43:35.997Z,6.52
2023-01-17T02:46:02.678Z,6.48
2023-01-17T02:48:32.293Z,6.53
2023-01-17T02:51:10.728Z,6.54
2023-01-17T02:54:21.712Z,6.52
2023-01-17T02:57:05.376Z,6.52
2023-01-17T02:59:50.136Z,6.48
2023-01-17T03:02:21.729Z,6.52
2023-01-17T03:05:06.512Z,6.50
2023-01-17T03:07:33.955Z,6.50
2023-01-17T03:10:04.877Z,6.51
2023-01-17T03:12:35.477Z,6.53
2023-01-17T03:15:02.021Z,6.52
2023-01-17T03:17:32.513Z,6.52
2023-01-17T03:19:59.103Z,6.55
2023-01-17T03:22:25.548Z,6.54
2023-01-17T03:24:52.037Z,6.49
2023-01-17T03:27:18.437Z,6.55
2023-01-17T03:29:44.875Z,6.55
2023-01-17T03:32:11.406Z,6.56
2023-01-17T03:34:37.808Z,6.56
2023-01-17T03:37:04.219Z,6.55
2023-01-17T03:39:30.665Z,6.55
2023-01-17T03:41:57.120Z,6.57
2023-01-17T03:44:23.588Z,6.52
2023-01-17T03:46:50.016Z,6.57
2023-01-17T03:49:16.765Z,6.57
2023-01-17T03:51:43.305Z,6.56
2023-01-17T03:54:09.713Z,6.57
2023-01-17T03:56:36.274Z,6.53
2023-01-17T03:59:02.776Z,6.54
2023-01-17T04:01:29.318Z,6.57
2023-01-17T04:03:55.745Z,6.55
2023-01-17T04:06:22.217Z,6.56
2023-01-17T04:08:48.721Z,6.56
2023-01-17T04:11:15.121Z,6.56
2023-01-17T04:13:41.524Z,6.56
2023-01-17T04:16:13.166Z,6.50
2023-01-17T04:18:39.753Z,6.55
2023-01-17T04:21:07.648Z,6.51
2023-01-17T04:23:35.853Z,6.54
2023-01-17T04:26:03.542Z,6.53
2023-01-17T04:28:31.673Z,6.53
2023-01-17T04:30:59.645Z,6.52
2023-01-17T04:33:26.340Z,6.53
2023-01-17T04:35:53.479Z,6.52
2023-01-17T04:38:20.162Z,6.52
2023-01-17T04:40:46.674Z,6.52
2023-01-17T04:43:13.054Z,6.52
2023-01-17T04:45:39.678Z,6.51
2023-01-17T04:48:06.533Z,6.51
2023-01-17T04:50:34.706Z,6.51
2023-01-17T04:53:01.152Z,6.50
2023-01-17T04:55:27.560Z,6.49
2023-01-17T04:57:54.538Z,6.48
2023-01-17T05:00:24.082Z,6.48
2023-01-17T05:02:52.009Z,6.45
2023-01-17T05:05:18.676Z,6.45
2023-01-17T05:07:52.997Z,6.45
2023-01-17T05:10:19.389Z,6.46
2023-01-17T05:12:56.320Z,6.46
2023-01-17T05:15:23.313Z,6.47
2023-01-17T05:17:51.824Z,6.43
2023-01-17T05:20:19.416Z,6.44
2023-01-17T05:22:47.347Z,6.45
2023-01-17T05:25:13.838Z,6.45
2023-01-17T05:27:40.275Z,6.45
2023-01-17T05:30:07.137Z,6.44
2023-01-17T05:32:33.592Z,6.42
2023-01-17T05:35:00.050Z,6.42
2023-01-17T05:37:26.489Z,6.44
2023-01-17T05:39:52.902Z,6.39
2023-01-17T05:42:19.333Z,6.41
2023-01-17T05:44:45.874Z,6.44
2023-01-17T05:47:12.290Z,6.45
2023-01-17T05:49:38.893Z,6.43
2023-01-17T05:52:05.366Z,6.41
2023-01-17T05:54:31.805Z,6.34
2023-01-17T05:56:58.196Z,6.43
2023-01-17T05:59:36.444Z,6.43
2023-01-17T06:02:03.588Z,6.41
2023-01-17T06:04:30.047Z,6.42
2023-01-17T06:06:56.579Z,6.37
2023-01-17T06:09:23.097Z,6.42
2023-01-17T06:11:49.531Z,6.33
2023-01-17T06:14:15.978Z,6.35
2023-01-17T06:16:42.492Z,6.39
2023-01-17T06:19:09.431Z,6.38
2023-01-17T06:21:35.862Z,6.32
2023-01-17T06:24:04.102Z,6.32
2023-01-17T06:26:30.765Z,6.37
2023-01-17T06:28:57.199Z,6.36
2023-01-17T06:31:23.726Z,6.33
2023-01-17T06:33:50.161Z,6.34
2023-01-17T06:36:16.593Z,6.30
2023-01-17T06:38:42.985Z,6.32
2023-01-17T06:41:09.722Z,6.31
2023-01-17T06:43:36.195Z,6.29
2023-01-17T06:46:02.642Z,6.30
2023-01-17T06:48:29.157Z,6.30
2023-01-17T06:50:57.660Z,6.27
2023-01-17T06:53:24.170Z,6.10
2023-01-17T06:55:50.953Z,6.24
2023-01-17T06:58:17.349Z,6.22
2023-01-17T07:00:44.518Z,6.19
2023-01-17T07:03:25.183Z,6.13
2023-01-17T07:05:52.952Z,6.16
2023-01-17T07:08:19.916Z,6.16
2023-01-17T07:10:47.509Z,6.14
2023-01-17T07:13:14.396Z,6.14
2023-01-17T07:15:41.081Z,6.12
2023-01-17T07:18:07.529Z,6.10
2023-01-17T07:20:34.051Z,6.10
2023-01-17T07:23:00.428Z,6.06
2023-01-17T07:25:27.849Z,6.05
2023-01-17T07:27:57.370Z,6.06
2023-01-17T07:30:24.752Z,6.05
2023-01-17T07:32:53.352Z,6.02
2023-01-17T07:35:20.379Z,6.03
2023-01-17T07:37:48.637Z,5.99
2023-01-17T07:40:17.497Z,6.02
2023-01-17T07:42:44.689Z,6.01
2023-01-17T07:45:12.825Z,5.98
2023-01-17T07:47:39.390Z,5.94
2023-01-17T07:50:07.395Z,5.99
2023-01-17T07:52:33.820Z,5.96
2023-01-17T07:55:00.288Z,5.98
2023-01-17T07:57:27.547Z,5.93
2023-01-17T07:59:54.002Z,5.97
2023-01-17T08:02:22.963Z,5.96
2023-01-17T08:04:49.668Z,5.95
2023-01-17T08:07:16.744Z,5.91
2023-01-17T08:09:44.023Z,5.96
2023-01-17T08:12:10.509Z,5.93
2023-01-17T08:14:36.943Z,5.90
2023-01-17T08:17:07.882Z,5.91
2023-01-17T08:19:34.345Z,5.91
2023-01-17T08:22:00.816Z,5.92
2023-01-17T08:24:27.266Z,5.93
2023-01-17T08:26:55.515Z,5.92
2023-01-17T08:29:22.815Z,5.92
2023-01-17T08:31:49.618Z,5.92
2023-01-17T08:34:16.479Z,5.91
2023-01-17T08:36:42.937Z,5.89
2023-01-17T08:39:09.819Z,5.84
2023-01-17T08:41:36.314Z,5.89
2023-01-17T08:44:03.179Z,5.85
2023-01-17T08:46:32.073Z,5.88
2023-01-17T08:48:59.979Z,5.85
2023-01-17T08:51:27.730Z,5.79
2023-01-17T08:53:55.578Z,5.88
2023-01-17T08:56:23.936Z,5.85
2023-01-17T08:58:50.333Z,5.87
2023-01-17T09:01:16.849Z,5.86
2023-01-17T09:03:43.659Z,5.86
2023-01-17T09:06:13.340Z,5.85
2023-01-17T09:08:40.595Z,5.84
2023-01-17T09:11:09.491Z,5.84
2023-01-17T09:13:36.445Z,5.82
2023-01-17T09:16:03.237Z,5.83
2023-01-17T09:18:31.179Z,5.83
2023-01-17T09:20:59.318Z,5.83
2023-01-17T09:23:27.762Z,5.82
2023-01-17T09:25:55.543Z,5.83
2023-01-17T09:28:22.653Z,5.82
2023-01-17T09:30:49.478Z,5.83
2023-01-17T09:33:16.230Z,5.80
2023-01-17T09:35:42.778Z,5.79
2023-01-17T09:38:09.370Z,5.83
2023-01-17T09:40:38.580Z,5.82
2023-01-17T09:43:11.953Z,5.81
2023-01-17T09:45:38.785Z,5.81
2023-01-17T09:48:14.319Z,5.80
2023-01-17T09:50:50.713Z,5.80
2023-01-17T09:53:20.804Z,5.79
2023-01-17T09:55:56.050Z,5.78
2023-01-17T09:59:03.552Z,5.76
2023-01-17T10:01:35.764Z,5.77
2023-01-17T10:04:38.274Z,5.71
2023-01-17T10:07:19.498Z,5.76
2023-01-17T10:10:11.264Z,5.74
2023-01-17T10:13:28.499Z,5.73
2023-01-17T10:16:28.474Z,5.71
2023-01-17T10:19:20.538Z,5.73
2023-01-17T10:22:18.575Z,5.70
2023-01-17T10:25:09.116Z,5.70
2023-01-17T10:27:40.844Z,5.70
2023-01-17T10:30:18.114Z,5.71
2023-01-17T10:32:48.931Z,5.71
2023-01-17T10:35:20.965Z,5.70
2023-01-17T10:37:49.907Z,5.68
2023-01-17T10:40:23.086Z,5.72
2023-01-17T10:43:00.985Z,5.70
2023-01-17T10:45:28.967Z,5.70
2023-01-17T10:48:15.360Z,5.68
2023-01-17T10:51:00.919Z,5.69
2023-01-17T10:53:44.111Z,5.65
2023-01-17T10:56:14.766Z,5.69
2023-01-17T10:58:41.261Z,5.69
2023-01-17T11:01:18.137Z,5.69
2023-01-17T11:03:50.582Z,5.70
2023-01-17T11:06:18.893Z,5.69
2023-01-17T11:08:53.612Z,5.68
2023-01-17T11:11:23.443Z,5.69
2023-01-17T11:13:52.151Z,5.65
2023-01-17T11:16:21.705Z,5.69
2023-01-17T11:19:05.117Z,5.66
2023-01-17T11:21:32.712Z,5.70
2023-01-17T11:24:10.178Z,5.65
2023-01-17T11:26:38.405Z,5.70
2023-01-17T11:29:16.094Z,5.70
2023-01-17T11:31:43.553Z,5.70
2023-01-17T11:34:24.950Z,5.68
2023-01-17T11:37:18.211Z,5.67
2023-01-17T11:39:48.041Z,5.68
2023-01-17T11:42:35.171Z,5.69
2023-01-17T11:45:26.970Z,5.70
2023-01-17T11:48:08.717Z,5.71
2023-01-17T11:50:38.649Z,5.73
2023-01-17T11:53:25.371Z,5.72
2023-01-17T11:56:18.796Z,5.72
2023-01-17T11:58:47.130Z,5.74
2023-01-17T12:01:50.794Z,5.73
2023-01-17T12:04:24.161Z,5.73
2023-01-17T12:07:17.212Z,5.74
2023-01-17T12:10:15.418Z,5.78
2023-01-17T12:13:07.614Z,5.81
2023-01-17T12:15:47.464Z,5.82
2023-01-17T12:18:22.069Z,5.84
2023-01-17T12:21:01.652Z,5.82
2023-01-17T12:24:13.874Z,5.83
2023-01-17T12:26:44.062Z,5.88
2023-01-17T12:29:34.514Z,5.90
2023-01-17T12:32:38.262Z,5.80
2023-01-17T12:35:18.656Z,5.94
2023-01-17T12:38:03.762Z,5.94
2023-01-17T12:40:46.689Z,5.98
2023-01-17T12:43:39.504Z,5.99
2023-01-17T12:46:21.189Z,6.03
2023-01-17T12:48:52.040Z,6.01
2023-01-17T12:51:27.626Z,6.03
2023-01-17T12:54:09.390Z,6.07
2023-01-17T12:56:42.657Z,6.08
2023-01-17T12:59:20.114Z,6.07
2023-01-17T13:01:57.681Z,6.08
2023-01-17T13:04:29.488Z,6.03
2023-01-17T13:06:58.946Z,6.07
2023-01-17T13:09:33.066Z,6.07
2023-01-17T13:12:19.965Z,6.05
2023-01-17T13:14:47.173Z,6.01
2023-01-17T13:17:22.616Z,6.02
2023-01-17T13:20:03.010Z,6.04
2023-01-17T13:22:31.988Z,6.06
2023-01-17T13:25:15.021Z,6.06
2023-01-17T13:28:23.391Z,6.03
2023-01-17T13:31:18.517Z,6.02
2023-01-17T13:34:22.645Z,6.00
2023-01-17T13:37:15.869Z,5.99
2023-01-17T13:40:03.276Z,6.00
2023-01-17T13:42:48.180Z,5.99
2023-01-17T13:45:20.930Z,5.98
2023-01-17T13:47:47.818Z,5.98
2023-01-17T13:50:36.159Z,5.96
2023-01-17T13:53:33.709Z,5.94
2023-01-17T13:56:18.467Z,5.93
2023-01-17T13:58:49.939Z,5.94
2023-01-17T14:01:22.715Z,5.94
2023-01-17T14:03:49.219Z,5.93
2023-01-17T14:06:35.445Z,5.89
2023-01-17T14:09:07.819Z,5.93
2023-01-17T14:11:52.224Z,5.91
2023-01-17T14:14:40.364Z,5.90
2023-01-17T14:17:16.218Z,5.90
2023-01-17T14:19:48.106Z,5.91
2023-01-17T14:22:20.239Z,5.90
2023-01-17T14:25:19.962Z,5.89
2023-01-17T14:27:49.987Z,5.89
2023-01-17T14:30:25.626Z,5.89
2023-01-17T14:33:01.285Z,5.87
2023-01-17T14:35:49.787Z,5.87
2023-01-17T14:38:21.677Z,5.85
2023-01-17T14:41:04.835Z,5.84
2023-01-17T14:43:35.240Z,5.82
2023-01-17T14:46:05.354Z,5.80
2023-01-17T14:48:31.777Z,5.75
2023-01-17T14:51:01.788Z,5.78
2023-01-17T14:53:30.562Z,5.81
2023-01-17T14:56:02.498Z,5.81
2023-01-17T14:58:34.880Z,5.80
2023-01-17T15:01:07.061Z,5.77
2023-01-17T15:03:44.113Z,5.77
2023-01-17T15:06:16.255Z,5.78
2023-01-17T15:08:42.925Z,5.76
2023-01-17T15:11:16.631Z,5.76
2023-01-17T15:13:46.920Z,5.76
2023-01-17T15:16:31.015Z,5.73
2023-01-17T15:18:57.599Z,5.71
2023-01-17T15:21:29.562Z,5.67
2023-01-17T15:24:01.285Z,5.65
2023-01-17T15:26:33.265Z,5.67
2023-01-17T15:29:11.357Z,5.64
2023-01-17T15:31:44.628Z,5.61
2023-01-17T15:34:27.018Z,5.63
2023-01-17T15:36:57.827Z,5.57
2023-01-17T15:39:30.544Z,5.61
2023-01-17T15:42:04.639Z,5.59
2023-01-17T15:44:47.483Z,5.56
2023-01-17T15:47:37.499Z,5.52
2023-01-17T15:50:29.896Z,5.51
2023-01-17T15:53:00.351Z,5.47
2023-01-17T15:55:32.979Z,5.48
2023-01-17T15:57:59.952Z,5.44
2023-01-17T16:00:32.620Z,5.46
2023-01-17T16:02:59.727Z,5.40
2023-01-17T16:05:31.174Z,5.43
2023-01-17T16:08:22.886Z,5.37
2023-01-17T16:10:54.699Z,5.37
2023-01-17T16:13:21.793Z,5.37
2023-01-17T16:15:48.645Z,5.35
2023-01-17T16:18:19.227Z,5.31
2023-01-17T16:20:49.730Z,5.32
2023-01-17T16:23:17.138Z,5.27
2023-01-17T16:25:44.435Z,5.23
2023-01-17T16:28:10.847Z,5.25
2023-01-17T16:30:37.718Z,5.24
2023-01-17T16:33:04.479Z,5.25
2023-01-17T16:35:33.873Z,5.19
2023-01-17T16:38:06.072Z,5.22
2023-01-17T16:40:38.714Z,5.19
2023-01-17T16:43:05.145Z,5.13
2023-01-17T16:45:38.873Z,5.15
2023-01-17T16:48:05.636Z,5.13
2023-01-17T16:50:32.299Z,5.11
2023-01-17T16:52:58.729Z,5.09
2023-01-17T16:55:25.782Z,5.08
2023-01-17T16:57:56.003Z,5.06
2023-01-17T17:00:22.815Z,5.04
2023-01-17T17:02:50.627Z,5.00
2023-01-17T17:05:17.675Z,4.99
2023-01-17T17:07:45.485Z,5.01
2023-01-17T17:10:14.385Z,4.99
2023-01-17T17:12:41.782Z,4.97
2023-01-17T17:15:10.111Z,4.97
2023-01-17T17:17:37.354Z,4.95
2023-01-17T17:20:05.306Z,4.94
2023-01-17T17:22:32.465Z,4.91
2023-01-17T17:24:59.172Z,4.91
2023-01-17T17:27:27.616Z,4.90
2023-01-17T17:29:54.007Z,4.82
2023-01-17T17:32:21.235Z,4.86
2023-01-17T17:34:48.046Z,4.85
2023-01-17T17:37:17.403Z,4.84
2023-01-17T17:39:45.149Z,4.82
2023-01-17T17:42:12.226Z,4.81
2023-01-17T17:44:38.612Z,4.77
2023-01-17T17:47:05.037Z,4.79
2023-01-17T17:49:31.507Z,4.77
2023-01-17T17:52:05.807Z,4.73
2023-01-17T17:54:33.085Z,4.73
2023-01-17T17:56:59.702Z,4.72
2023-01-17T17:59:26.521Z,4.68
2023-01-17T18:01:53.190Z,4.69
2023-01-17T18:04:21.512Z,4.68
2023-01-17T18:06:47.944Z,4.66
2023-01-17T18:09:14.479Z,4.65
2023-01-17T18:11:42.124Z,4.64
2023-01-17T18:14:12.469Z,4.63
2023-01-17T18:16:43.871Z,4.61
2023-01-17T18:19:17.016Z,4.59
2023-01-17T18:21:43.978Z,4.61
2023-01-17T18:24:13.541Z,4.58
2023-01-17T18:26:58.284Z,4.53
2023-01-17T18:29:27.027Z,4.55
2023-01-17T18:31:54.651Z,4.53
2023-01-17T18:34:24.564Z,4.52
2023-01-17T18:36:51.733Z,4.45
2023-01-17T18:39:20.936Z,4.49
2023-01-17T18:41:47.428Z,4.44
2023-01-17T18:44:14.004Z,4.47
2023-01-17T18:46:42.035Z,4.48
2023-01-17T18:49:12.699Z,4.46
2023-01-17T18:51:39.195Z,4.45
2023-01-17T18:54:07.379Z,4.43
2023-01-17T18:56:35.223Z,4.37
2023-01-17T18:59:02.860Z,4.42
2023-01-17T19:01:33.013Z,4.40
2023-01-17T19:04:02.271Z,4.40
2023-01-17T19:06:31.361Z,4.37
2023-01-17T19:08:58.553Z,4.36
2023-01-17T19:11:26.824Z,4.35
2023-01-17T19:13:53.787Z,4.33
2023-01-17T19:16:27.843Z,4.32
2023-01-17T19:18:56.394Z,4.31
2023-01-17T19:21:26.098Z,4.26
2023-01-17T19:23:54.009Z,4.28
2023-01-17T19:26:22.730Z,4.14
2023-01-17T19:28:50.210Z,4.22
2023-01-17T19:31:20.371Z,4.23
2023-01-17T19:33:48.330Z,4.23
2023-01-17T19:36:21.044Z,4.19
2023-01-17T19:39:03.113Z,4.21
2023-01-17T19:41:31.198Z,4.19
2023-01-17T19:44:00.407Z,4.17
2023-01-17T19:46:27.973Z,4.14
2023-01-17T19:48:56.141Z,4.16
2023-01-17T19:51:23.454Z,4.16
2023-01-17T19:53:50.175Z,4.14
2023-01-17T19:56:19.134Z,4.11
2023-01-17T19:58:46.575Z,4.10
2023-01-17T20:01:22.260Z,4.05
2023-01-17T20:03:50.167Z,4.09
2023-01-17T20:06:22.413Z,4.08
2023-01-17T20:08:49.027Z,4.07
2023-01-17T20:11:19.082Z,4.05
2023-01-17T20:13:46.649Z,4.04
2023-01-17T20:16:15.031Z,3.97
2023-01-17T20:18:41.842Z,4.01
2023-01-17T20:21:26.032Z,3.99
2023-01-17T20:23:53.233Z,3.94
2023-01-17T20:26:25.360Z,3.93
2023-01-17T20:28:52.106Z,3.90
2023-01-17T20:31:23.797Z,3.90
2023-01-17T20:33:54.034Z,3.92
2023-01-17T20:36:22.834Z,3.92
2023-01-17T20:38:49.698Z,3.90
2023-01-17T20:41:22.056Z,3.90
2023-01-17T20:43:51.055Z,3.88
2023-01-17T20:46:19.171Z,3.88
2023-01-17T20:48:48.161Z,3.88
2023-01-17T20:51:15.407Z,3.81
2023-01-17T20:53:43.416Z,3.86
2023-01-17T20:56:14.312Z,3.80
2023-01-17T20:58:41.802Z,3.82
2023-01-17T21:01:10.464Z,3.82
2023-01-17T21:03:38.782Z,3.78
2023-01-17T21:06:07.649Z,3.78
2023-01-17T21:08:36.518Z,3.80
2023-01-17T21:11:03.754Z,3.78
2023-01-17T21:13:31.535Z,3.77
2023-01-17T21:15:58.910Z,3.77
2023-01-17T21:18:26.932Z,3.74
2023-01-17T21:20:53.412Z,3.66
2023-01-17T21:23:20.368Z,3.72
2023-01-17T21:25:55.407Z,3.71
2023-01-17T21:28:26.846Z,3.72
2023-01-17T21:30:54.147Z,3.68
2023-01-17T21:33:21.995Z,3.68
2023-01-17T21:35:48.716Z,3.64
2023-01-17T21:38:15.833Z,3.68
2023-01-17T21:40:43.707Z,3.62
2023-01-17T21:43:10.958Z,3.62
2023-01-17T21:45:38.530Z,3.63
2023-01-17T21:48:06.655Z,3.62
2023-01-17T21:50:34.064Z,3.55
2023-01-17T21:53:00.826Z,3.54
2023-01-17T21:55:45.974Z,3.59
2023-01-17T21:58:35.914Z,3.55
2023-01-17T22:01:15.960Z,3.56
2023-01-17T22:03:48.345Z,3.56
2023-01-17T22:06:14.782Z,3.54
2023-01-17T22:08:41.169Z,3.53
2023-01-17T22:11:13.132Z,3.48
2023-01-17T22:13:41.841Z,3.52
2023-01-17T22:16:12.029Z,3.50
2023-01-17T22:18:39.862Z,3.48
2023-01-17T22:21:28.271Z,3.47
2023-01-17T22:23:56.527Z,3.48
2023-01-17T22:26:29.125Z,3.45
2023-01-17T22:28:56.016Z,3.44
2023-01-17T22:31:25.061Z,3.44
2023-01-17T22:33:54.411Z,3.41
2023-01-17T22:36:20.848Z,3.41
2023-01-17T22:38:47.511Z,3.40
2023-01-17T22:41:16.662Z,3.36
2023-01-17T22:43:48.785Z,3.39
2023-01-17T22:46:18.736Z,3.39
2023-01-17T22:48:45.655Z,3.35
2023-01-17T22:51:15.480Z,3.36
2023-01-17T22:53:44.088Z,3.35
2023-01-17T22:56:14.540Z,3.33
2023-01-17T22:58:44.495Z,3.33
2023-01-17T23:01:15.932Z,3.32
2023-01-17T23:03:42.478Z,3.25
2023-01-17T23:06:18.985Z,3.28
2023-01-17T23:08:48.608Z,3.28
2023-01-17T23:11:46.065Z,3.21
2023-01-17T23:14:21.886Z,3.23
2023-01-17T23:17:09.615Z,3.23
2023-01-17T23:19:38.462Z,3.21
2023-01-17T23:22:20.488Z,3.21
2023-01-17T23:24:55.214Z,3.21
2023-01-17T23:27:47.487Z,3.20
2023-01-17T23:30:17.558Z,3.18
2023-01-17T23:32:47.237Z,3.17
2023-01-17T23:35:14.798Z,3.15
2023-01-17T23:37:59.793Z,3.13
2023-01-17T23:40:26.249Z,3.14
2023-01-17T23:43:11.131Z,3.07
2023-01-17T23:45:38.868Z,3.12
2023-01-17T23:48:09.824Z,3.11
2023-01-17T23:50:38.277Z,3.08
2023-01-17T23:53:08.102Z,3.07
2023-01-17T23:55:40.806Z,3.07
2023-01-17T23:58:10.072Z,3.06
